Time;durP1;ratioP1;P1;durP2;ratioP2;P2;SDS_P1;SDS_P2;PMS_P1;PMS_P2;Temp;Humidity;BMP_temperature;BMP_pressure;BME280_temperature;BME280_humidity;BME280_pressure;Samples;Min_cycle;Max_cycle;Signal;HPM_P1;HPM_P2
2022/08/27 00:01:22;;;;;;;9.23;2.72;;;;;;;14.43;74.78;95220.26;1701007;84;21007;-71
2022/08/27 00:03:49;;;;;;;6.15;2.60;;;;;;;14.45;75.23;95219.73;1701120;84;20972;-70
2022/08/27 00:06:18;;;;;;;2.77;2.12;;;;;;;14.49;74.87;95220.03;1701133;84;21103;-71
2022/08/27 00:08:46;;;;;;;6.33;2.33;;;;;;;14.50;74.99;95217.30;1722341;83;21030;-70
2022/08/27 00:11:14;;;;;;;4.00;2.37;;;;;;;14.38;75.75;95214.27;1732275;83;21053;-70
2022/08/27 00:13:42;;;;;;;7.33;2.42;;;;;;;14.35;76.00;95211.73;1732113;83;21074;-71
2022/08/27 00:16:11;;;;;;;6.25;2.62;;;;;;;14.37;75.49;95213.41;1732119;83;21023;-70
2022/08/27 00:18:40;;;;;;;3.58;2.67;;;;;;;14.36;75.23;95212.98;1731687;83;21023;-70
2022/08/27 00:21:07;;;;;;;4.10;2.62;;;;;;;14.37;76.78;95209.42;1732249;83;20988;-70
2022/08/27 00:23:36;;;;;;;3.80;2.60;;;;;;;14.34;76.05;95212.64;1732192;83;21030;-71
2022/08/27 00:26:05;;;;;;;5.92;2.55;;;;;;;14.27;76.05;95209.39;1732015;83;21513;-71
2022/08/27 00:28:33;;;;;;;7.47;3.20;;;;;;;14.24;75.43;95209.52;1732222;83;21023;-71
2022/08/27 00:31:00;;;;;;;6.70;2.20;;;;;;;14.31;75.48;95208.79;1732215;83;20995;-70
2022/08/27 00:33:27;;;;;;;6.03;2.70;;;;;;;14.30;74.91;95205.28;1731908;83;21508;-71
2022/08/27 00:35:55;;;;;;;2.75;2.47;;;;;;;14.28;74.83;95210.63;1732008;83;21031;-71
2022/08/27 00:38:23;;;;;;;5.65;2.75;;;;;;;14.25;75.60;95210.77;1731883;83;21066;-70
2022/08/27 00:40:51;;;;;;;3.00;2.60;;;;;;;14.14;75.05;95201.52;1732061;83;21074;-71
2022/08/27 00:43:28;;;;;;;5.90;2.90;;;;;;;14.11;75.05;95210.89;1731877;83;21473;-70
2022/08/27 00:46:02;;;;;;;7.67;2.62;;;;;;;14.16;75.35;95204.51;1732148;83;21034;-71
2022/08/27 00:48:34;;;;;;;7.37;2.80;;;;;;;14.13;75.53;95206.39;1730509;83;21059;-71
2022/08/27 00:51:02;;;;;;;4.67;2.58;;;;;;;14.03;75.70;95203.23;1732048;82;21508;-70
2022/08/27 00:53:32;;;;;;;3.50;2.60;;;;;;;13.98;75.96;95203.40;1732254;83;20995;-71
2022/08/27 00:56:14;;;;;;;8.50;2.95;;;;;;;13.94;76.22;95204.92;1732040;83;21014;-70
2022/08/27 00:58:50;;;;;;;6.80;3.15;;;;;;;13.91;75.75;95206.34;1731912;83;21564;-70
2022/08/27 01:01:22;;;;;;;5.50;2.58;;;;;;;13.80;76.13;95210.27;1731989;83;21002;-71
2022/08/27 01:03:53;;;;;;;7.10;2.90;;;;;;;13.81;75.85;95203.20;1732166;83;20998;-70
2022/08/27 01:06:23;;;;;;;4.47;3.00;;;;;;;13.87;76.59;95204.75;1732257;82;21067;-71
2022/08/27 01:08:55;;;;;;;4.95;2.77;;;;;;;13.76;76.49;95209.14;1713154;83;21031;-70
2022/08/27 01:11:24;;;;;;;10.50;3.75;;;;;;;13.67;77.59;95213.44;1701541;84;21114;-71
2022/08/27 01:13:52;;;;;;;4.12;2.60;;;;;;;13.66;77.07;95212.59;1701223;84;21504;-70
2022/08/27 01:16:23;;;;;;;7.53;2.72;;;;;;;13.64;77.16;95211.77;1701259;84;21012;-71
2022/08/27 01:18:51;;;;;;;8.10;2.58;;;;;;;13.69;77.67;95209.81;1701277;84;21003;-71
2022/08/27 01:21:40;;;;;;;7.37;2.37;;;;;;;13.62;77.10;95210.95;1701053;84;21056;-71
2022/08/27 01:24:39;;;;;;;6.30;2.80;;;;;;;13.57;78.20;95208.47;1700438;84;20995;-71
2022/08/27 01:27:10;;;;;;;4.45;2.20;;;;;;;13.56;77.12;95203.23;1701577;84;21000;-71
2022/08/27 01:29:37;;;;;;;6.80;2.62;;;;;;;13.58;76.74;95203.59;1701266;84;21038;-70
2022/08/27 01:32:12;;;;;;;3.75;2.40;;;;;;;13.59;77.14;95197.35;1701073;84;21023;-71
2022/08/27 01:34:39;;;;;;;9.30;2.62;;;;;;;13.53;77.50;95198.03;1700573;84;21023;-71
2022/08/27 01:37:07;;;;;;;10.32;2.40;;;;;;;13.53;77.78;95196.27;1701178;84;21497;-71
2022/08/27 01:39:38;;;;;;;7.42;2.77;;;;;;;13.50;77.26;95197.67;1700918;84;21031;-70
2022/08/27 01:42:25;;;;;;;5.08;3.00;;;;;;;13.57;77.79;95197.86;1701232;84;21011;-71
2022/08/27 01:44:56;;;;;;;5.92;2.50;;;;;;;13.56;77.58;95196.61;1701214;84;21084;-71
2022/08/27 01:47:26;;;;;;;6.50;2.85;;;;;;;13.59;77.81;95197.35;1701336;84;21038;-70
2022/08/27 01:49:54;;;;;;;8.13;2.70;;;;;;;13.68;77.66;95200.58;1701620;84;21047;-70
2022/08/27 01:52:25;;;;;;;6.83;2.98;;;;;;;13.71;77.17;95199.13;1701281;84;21027;-71
2022/08/27 01:54:52;;;;;;;8.95;3.02;;;;;;;13.65;76.63;95201.55;1701394;84;21327;-71
2022/08/27 01:57:20;;;;;;;4.53;2.80;;;;;;;13.71;77.37;95205.76;1701379;84;21106;-70
2022/08/27 01:59:48;;;;;;;6.92;2.40;;;;;;;13.67;76.73;95200.19;1701246;84;21497;-71
2022/08/27 02:02:16;;;;;;;6.58;2.50;;;;;;;13.61;76.62;95200.81;1701052;84;21006;-71
2022/08/27 02:04:44;;;;;;;7.70;2.55;;;;;;;13.62;76.73;95206.98;1700942;84;20983;-71
2022/08/27 02:07:12;;;;;;;4.10;2.65;;;;;;;13.57;76.63;95207.61;1701149;84;21060;-71
2022/08/27 02:09:38;;;;;;;6.62;2.62;;;;;;;13.52;76.96;95205.59;1726630;83;21529;-71
2022/08/27 02:12:06;;;;;;;4.72;2.35;;;;;;;13.49;78.13;95214.98;1731892;83;21482;-71
2022/08/27 02:14:33;;;;;;;4.55;2.12;;;;;;;13.48;78.71;95210.14;1732345;83;21066;-71
2022/08/27 02:17:01;;;;;;;7.55;2.90;;;;;;;13.44;77.84;95202.36;1731755;83;21561;-71
2022/08/27 02:19:28;;;;;;;7.60;2.47;;;;;;;13.42;77.84;95216.51;1732074;83;21481;-70
2022/08/27 02:21:59;;;;;;;3.72;2.80;;;;;;;13.43;78.07;95218.72;1732164;83;21023;-71
2022/08/27 02:24:23;;;;;;;4.40;2.60;;;;;;;13.39;77.70;95215.30;1731657;83;21074;-71
2022/08/27 02:26:50;;;;;;;5.90;2.50;;;;;;;13.39;77.56;95213.11;1732073;83;20992;-71
2022/08/27 02:29:17;;;;;;;5.28;2.60;;;;;;;13.37;77.71;95217.13;1732102;83;21497;-71
2022/08/27 02:31:44;;;;;;;5.28;2.62;;;;;;;13.43;77.45;95217.40;1732091;83;21039;-71
2022/08/27 02:34:10;;;;;;;9.50;2.75;;;;;;;13.40;77.61;95218.34;1731857;83;20999;-71
2022/08/27 02:36:37;;;;;;;6.35;2.60;;;;;;;13.39;77.61;95215.30;1731639;83;21003;-71
2022/08/27 02:39:05;;;;;;;8.23;3.12;;;;;;;13.28;77.57;95216.59;1732054;83;21019;-70
2022/08/27 02:41:32;;;;;;;5.97;2.62;;;;;;;13.24;77.91;95214.95;1681682;83;21531;-71
2022/08/27 02:44:00;;;;;;;6.97;2.58;;;;;;;13.14;77.80;95214.41;1732119;83;21489;-70
2022/08/27 02:46:27;;;;;;;8.33;3.12;;;;;;;13.09;78.21;95219.85;1731738;83;21079;-70
2022/08/27 02:48:54;;;;;;;7.17;2.47;;;;;;;13.10;78.78;95220.71;1731938;83;20999;-71
2022/08/27 02:51:21;;;;;;;10.25;2.60;;;;;;;13.07;79.07;95223.47;1731646;83;21083;-71
2022/08/27 02:53:48;;;;;;;7.17;3.02;;;;;;;13.03;78.50;95224.48;1731916;83;21004;-71
2022/08/27 02:56:15;;;;;;;9.73;2.37;;;;;;;13.04;79.27;95224.91;1731747;83;21039;-71
2022/08/27 02:58:42;;;;;;;5.05;2.58;;;;;;;13.02;79.58;95218.80;1732311;83;20999;-71
2022/08/27 03:01:08;;;;;;;5.12;2.40;;;;;;;12.98;79.14;95220.69;1732119;83;21027;-71
2022/08/27 03:03:35;;;;;;;4.62;2.55;;;;;;;12.94;79.23;95219.91;1732195;83;20983;-71
2022/08/27 03:06:02;;;;;;;5.92;2.85;;;;;;;12.92;78.47;95224.39;1731789;83;21015;-71
2022/08/27 03:08:28;;;;;;;6.45;2.80;;;;;;;13.01;78.99;95223.70;1731898;83;21074;-70
2022/08/27 03:10:56;;;;;;;5.70;2.72;;;;;;;13.04;79.37;95221.80;1731898;83;21031;-70
2022/08/27 03:13:24;;;;;;;5.22;2.45;;;;;;;13.03;78.57;95226.70;1732112;83;21066;-71
2022/08/27 03:15:52;;;;;;;4.47;2.50;;;;;;;13.08;78.72;95226.08;1731942;83;21078;-71
2022/08/27 03:18:20;;;;;;;4.30;2.70;;;;;;;13.06;79.11;95224.41;1731965;83;20991;-71
2022/08/27 03:20:54;;;;;;;4.33;2.35;;;;;;;13.06;79.06;95223.08;1731857;83;21015;-71
2022/08/27 03:23:24;;;;;;;9.68;2.95;;;;;;;13.01;79.23;95221.05;1732175;83;21067;-70
2022/08/27 03:25:55;;;;;;;9.05;2.80;;;;;;;12.99;79.45;95224.59;1732342;83;21006;-71
2022/08/27 03:28:26;;;;;;;6.47;2.55;;;;;;;13.07;79.27;95219.50;1732168;82;21003;-71
2022/08/27 03:30:58;;;;;;;4.33;2.60;;;;;;;13.04;79.74;95225.77;1732265;83;21031;-71
2022/08/27 03:33:27;;;;;;;5.45;2.58;;;;;;;13.01;79.41;95224.55;1732188;82;21536;-71
2022/08/27 03:35:54;;;;;;;5.92;2.65;;;;;;;12.95;79.88;95221.66;1731817;83;21477;-71
2022/08/27 03:38:22;;;;;;;9.20;2.80;;;;;;;12.95;79.04;95221.66;1731967;83;21027;-71
2022/08/27 03:40:50;;;;;;;6.25;2.55;;;;;;;12.99;79.18;95230.36;1732228;83;21486;-70
2022/08/27 03:43:20;;;;;;;5.05;2.50;;;;;;;13.10;78.95;95228.66;1731975;83;21019;-70
2022/08/27 03:45:49;;;;;;;4.97;2.50;;;;;;;13.10;78.33;95225.58;1732262;83;21026;-70
2022/08/27 03:48:17;;;;;;;6.42;2.30;;;;;;;13.13;79.02;95229.91;1732177;83;21062;-71
2022/08/27 03:50:47;;;;;;;4.03;2.10;;;;;;;13.07;79.13;95226.98;1731869;83;21446;-71
2022/08/27 03:53:16;;;;;;;6.95;2.67;;;;;;;13.05;79.87;95223.52;1732193;83;21102;-71
2022/08/27 03:55:43;;;;;;;8.08;2.80;;;;;;;13.09;79.76;95223.83;1732091;83;21170;-71
2022/08/27 03:58:12;;;;;;;8.68;3.22;;;;;;;13.16;79.24;95221.84;1731977;83;21570;-71
2022/08/27 04:00:41;;;;;;;7.53;2.42;;;;;;;13.25;78.40;95218.84;1732040;83;21493;-71
2022/08/27 04:03:07;;;;;;;6.22;2.27;;;;;;;13.23;78.65;95218.06;1732245;83;20995;-68
2022/08/27 04:05:36;;;;;;;4.50;2.55;;;;;;;13.22;78.83;95218.97;1731780;83;21070;-70
2022/08/27 04:08:02;;;;;;;7.03;2.58;;;;;;;13.20;78.36;95218.15;1732361;83;21090;-70
2022/08/27 04:10:29;;;;;;;6.17;2.50;;;;;;;13.11;78.73;95222.00;1702240;83;21939;-71
2022/08/27 04:12:55;;;;;;;5.65;3.00;;;;;;;13.07;78.59;95223.47;1701596;84;20995;-70
2022/08/27 04:15:22;;;;;;;4.97;3.08;;;;;;;13.07;79.73;95224.80;1701352;84;21062;-71
2022/08/27 04:17:50;;;;;;;4.00;2.50;;;;;;;13.12;79.50;95226.36;1701265;84;21481;-71
2022/08/27 04:20:17;;;;;;;5.83;3.12;;;;;;;13.16;80.04;95230.64;1700967;84;21012;-70
2022/08/27 04:22:43;;;;;;;8.40;3.20;;;;;;;13.23;79.42;95226.02;1701365;84;21006;-71
2022/08/27 04:25:10;;;;;;;4.92;2.42;;;;;;;13.31;79.59;95229.28;1701007;84;21047;-71
2022/08/27 04:27:36;;;;;;;4.80;2.70;;;;;;;13.35;79.91;95228.23;1701447;84;21007;-71
2022/08/27 04:30:05;;;;;;;6.75;2.80;;;;;;;13.48;79.82;95223.83;1701298;84;21493;-70
2022/08/27 04:32:32;;;;;;;6.50;2.80;;;;;;;13.62;79.70;95222.42;1700967;84;20971;-71
2022/08/27 04:35:00;;;;;;;10.98;2.83;;;;;;;13.77;79.52;95221.45;1701112;84;21020;-71
2022/08/27 04:37:32;;;;;;;7.42;2.72;;;;;;;13.94;79.28;95224.34;1701378;84;21071;-71
2022/08/27 04:39:59;;;;;;;6.55;3.10;;;;;;;14.11;78.81;95220.17;1701281;84;21031;-71
2022/08/27 04:42:26;;;;;;;5.60;2.70;;;;;;;14.22;78.08;95217.99;1701218;84;21536;-71
2022/08/27 04:44:53;;;;;;;6.47;2.72;;;;;;;14.26;77.52;95218.25;1701134;84;21047;-71
2022/08/27 04:47:19;;;;;;;6.37;2.90;;;;;;;14.31;77.32;95214.95;1701217;84;21027;-71
2022/08/27 04:49:47;;;;;;;6.75;2.80;;;;;;;14.31;77.65;95216.28;1701192;84;21023;-71
2022/08/27 04:52:14;;;;;;;7.00;2.83;;;;;;;14.36;78.35;95214.78;1701067;84;21043;-70
2022/08/27 04:54:41;;;;;;;6.00;2.80;;;;;;;14.40;77.99;95221.24;1701331;84;21469;-71
2022/08/27 04:57:09;;;;;;;6.10;2.95;;;;;;;14.43;78.73;95215.80;1701314;84;20987;-71
2022/08/27 04:59:37;;;;;;;3.90;2.92;;;;;;;14.53;78.51;95216.78;1701003;84;21068;-71
2022/08/27 05:02:08;;;;;;;8.63;3.10;;;;;;;14.65;78.31;95220.30;1701247;84;21019;-71
2022/08/27 05:04:38;;;;;;;6.72;3.02;;;;;;;14.77;78.04;95213.64;1701253;84;21075;-71
2022/08/27 05:07:08;;;;;;;7.00;3.40;;;;;;;14.87;77.95;95222.95;1701202;84;21010;-71
2022/08/27 05:09:36;;;;;;;6.92;3.33;;;;;;;14.98;77.84;95223.83;1714860;83;21082;-70
2022/08/27 05:12:03;;;;;;;5.17;3.10;;;;;;;15.09;77.26;95218.91;1732256;83;21022;-71
2022/08/27 05:14:31;;;;;;;5.70;3.37;;;;;;;15.17;76.30;95221.25;1731958;83;21540;-71
2022/08/27 05:16:59;;;;;;;6.87;3.55;;;;;;;15.28;76.15;95216.35;1732419;83;21015;-71
2022/08/27 05:19:26;;;;;;;6.90;3.80;;;;;;;15.36;75.71;95219.06;1732053;83;21031;-71
2022/08/27 05:21:54;;;;;;;5.35;3.40;;;;;;;15.45;75.02;95223.14;1731679;83;21560;-71
2022/08/27 05:24:20;;;;;;;5.47;3.30;;;;;;;15.53;74.57;95222.80;1732177;83;21027;-71
2022/08/27 05:26:48;;;;;;;11.73;3.90;;;;;;;15.62;74.20;95217.05;1731945;83;21042;-71
2022/08/27 05:29:16;;;;;;;10.45;3.95;;;;;;;15.74;74.30;95220.53;1732087;83;21058;-71
2022/08/27 05:31:42;;;;;;;7.90;3.33;;;;;;;15.86;74.39;95221.79;1731833;83;21062;-71
2022/08/27 05:34:10;;;;;;;6.67;3.30;;;;;;;16.00;74.36;95215.82;1731860;83;20995;-71
2022/08/27 05:36:39;;;;;;;6.80;2.90;;;;;;;16.13;73.95;95217.01;1731689;83;21055;-71
2022/08/27 05:39:06;;;;;;;7.60;3.17;;;;;;;16.31;72.99;95215.28;1732171;83;21019;-71
2022/08/27 05:41:33;;;;;;;6.50;2.98;;;;;;;16.47;73.20;95221.20;1731945;83;21088;-71
2022/08/27 05:44:04;;;;;;;7.42;2.80;;;;;;;16.63;72.53;95219.08;1731815;83;21628;-71
2022/08/27 05:46:31;;;;;;;8.03;2.98;;;;;;;16.77;71.88;95216.20;1732208;83;21027;-71
2022/08/27 05:49:00;;;;;;;4.92;2.77;;;;;;;16.93;71.31;95215.86;1731870;83;21014;-70
2022/08/27 05:51:31;;;;;;;8.85;3.00;;;;;;;17.08;70.98;95212.91;1731930;83;20980;-71
2022/08/27 05:54:05;;;;;;;7.30;3.05;;;;;;;17.29;70.68;95218.50;1731420;83;21007;-71
2022/08/27 05:56:35;;;;;;;10.68;2.95;;;;;;;17.42;70.63;95207.20;1732029;83;21592;-71
2022/08/27 06:01:50;;;;;;;13.03;3.05;;;;;;;17.78;70.29;95204.41;1731811;83;21584;-71
2022/08/27 06:04:19;;;;;;;7.17;3.12;;;;;;;17.92;69.56;95206.39;1732172;83;20991;-71
2022/08/27 06:06:48;;;;;;;6.92;2.95;;;;;;;18.03;69.10;95207.99;1731724;83;21144;-71
2022/08/27 06:09:22;;;;;;;6.25;3.67;;;;;;;18.17;68.87;95211.27;1731932;83;21079;-71
2022/08/27 06:11:49;;;;;;;7.22;3.50;;;;;;;18.30;68.50;95204.30;1732020;83;21023;-71
2022/08/27 06:14:16;;;;;;;6.60;3.60;;;;;;;18.42;67.64;95207.22;1704946;83;21019;-71
2022/08/27 06:16:43;;;;;;;8.68;3.40;;;;;;;18.50;68.13;95208.53;1731722;83;21118;-70
2022/08/27 06:19:11;;;;;;;5.08;3.20;;;;;;;18.62;68.28;95208.78;1732548;83;21473;-71
2022/08/27 06:21:40;;;;;;;5.20;3.58;;;;;;;18.70;67.59;95202.55;1731817;83;21091;-70
2022/08/27 06:24:08;;;;;;;4.67;3.17;;;;;;;18.76;67.32;95217.77;1731832;83;21030;-71
2022/08/27 06:26:35;;;;;;;12.18;3.58;;;;;;;18.78;67.18;95219.03;1732072;83;21082;-71
2022/08/27 06:29:04;;;;;;;7.65;3.30;;;;;;;18.83;67.37;95212.95;1732390;83;21034;-71
2022/08/27 06:31:31;;;;;;;9.30;3.62;;;;;;;18.86;67.21;95215.44;1732192;83;20987;-71
2022/08/27 06:34:01;;;;;;;9.10;3.33;;;;;;;18.88;67.11;95213.55;1732049;83;21103;-71
2022/08/27 06:36:29;;;;;;;7.87;3.95;;;;;;;18.93;67.12;95214.63;1731855;83;21027;-71
2022/08/27 06:38:58;;;;;;;8.90;4.60;;;;;;;18.96;67.24;95212.63;1731923;83;21461;-70
2022/08/27 06:41:27;;;;;;;10.43;4.35;;;;;;;19.05;67.39;95206.35;1732096;83;21027;-71
2022/08/27 06:43:57;;;;;;;6.65;3.92;;;;;;;19.18;67.43;95211.39;1732101;83;20999;-71
2022/08/27 06:46:27;;;;;;;6.53;3.95;;;;;;;19.26;67.35;95213.14;1731755;83;21066;-71
2022/08/27 06:48:59;;;;;;;10.45;4.22;;;;;;;19.35;67.09;95215.73;1732071;83;21007;-71
2022/08/27 06:51:30;;;;;;;7.30;3.77;;;;;;;19.47;67.19;95213.67;1731935;83;21469;-71
2022/08/27 06:54:00;;;;;;;6.97;3.87;;;;;;;19.63;67.07;95210.92;1732128;82;21039;-71
2022/08/27 06:56:27;;;;;;;5.42;3.20;;;;;;;19.78;66.85;95204.70;1732151;83;21003;-71
2022/08/27 06:58:57;;;;;;;6.60;3.60;;;;;;;19.92;64.60;95212.36;1731703;83;21065;-71
2022/08/27 07:01:29;;;;;;;12.65;4.75;;;;;;;20.07;64.76;95211.41;1732052;83;20998;-71
2022/08/27 07:03:59;;;;;;;9.43;4.80;;;;;;;20.25;64.71;95206.23;1732191;82;21121;-71
2022/08/27 07:06:28;;;;;;;8.25;4.40;;;;;;;20.42;63.71;95203.83;1731676;83;21517;-71
2022/08/27 07:08:58;;;;;;;9.00;3.50;;;;;;;20.60;63.59;95206.33;1731895;83;21121;-71
2022/08/27 07:11:27;;;;;;;8.98;4.15;;;;;;;20.70;62.98;95206.12;1731734;83;21114;-71
2022/08/27 07:13:55;;;;;;;7.62;3.67;;;;;;;20.82;62.47;95212.52;1704883;83;21027;-71
2022/08/27 07:16:24;;;;;;;7.30;3.55;;;;;;;20.96;62.36;95205.75;1732353;83;21067;-71
2022/08/27 07:18:55;;;;;;;6.67;3.42;;;;;;;21.09;62.42;95202.66;1732361;83;21011;-71
2022/08/27 07:21:22;;;;;;;8.58;3.33;;;;;;;21.23;61.65;95205.75;1732049;82;21070;-71
2022/08/27 07:23:53;;;;;;;7.47;3.30;;;;;;;21.39;61.44;95209.17;1732260;83;20971;-71
2022/08/27 07:26:22;;;;;;;7.20;3.65;;;;;;;21.56;61.46;95198.61;1732251;83;21087;-71
2022/08/27 07:28:49;;;;;;;5.37;3.42;;;;;;;21.73;60.91;95200.14;1732015;83;20951;-71
2022/08/27 07:31:19;;;;;;;14.20;3.77;;;;;;;21.89;60.30;95203.11;1732283;83;21019;-71
2022/08/27 07:33:46;;;;;;;8.58;2.87;;;;;;;22.05;60.33;95198.41;1732213;83;20990;-71
2022/08/27 07:36:14;;;;;;;5.92;3.20;;;;;;;22.20;59.03;95194.66;1731900;83;21129;-70
2022/08/27 07:38:41;;;;;;;7.45;3.12;;;;;;;22.36;57.57;95189.53;1732210;83;21548;-71
2022/08/27 07:41:10;;;;;;;7.12;2.75;;;;;;;22.50;58.22;95189.88;1731963;83;21010;-71
2022/08/27 07:46:25;;;;;;;5.85;3.22;;;;;;;22.80;53.09;95191.67;1732327;83;21035;-71
2022/08/27 07:48:54;;;;;;;6.30;3.17;;;;;;;23.00;55.61;95197.45;1732174;83;21067;-71
2022/08/27 07:51:23;;;;;;;6.85;3.27;;;;;;;23.17;56.18;95197.06;1732170;83;21023;-71
2022/08/27 07:53:52;;;;;;;8.13;3.27;;;;;;;23.32;56.82;95190.52;1732099;83;21066;-71
2022/08/27 07:56:21;;;;;;;8.13;3.20;;;;;;;23.49;56.96;95188.40;1732039;83;21050;-71
2022/08/27 07:58:49;;;;;;;10.32;3.30;;;;;;;23.64;55.43;95185.02;1732300;83;20991;-71
2022/08/27 08:01:17;;;;;;;10.65;3.55;;;;;;;23.78;56.09;95186.17;1732336;83;20975;-71
2022/08/27 08:03:45;;;;;;;6.75;3.33;;;;;;;23.94;56.05;95184.52;1732047;83;21476;-71
2022/08/27 08:06:15;;;;;;;6.78;3.50;;;;;;;24.11;56.58;95190.77;1731930;83;21011;-71
2022/08/27 08:08:42;;;;;;;8.20;3.00;;;;;;;24.29;56.74;95186.25;1732364;82;21015;-71
2022/08/27 08:11:12;;;;;;;11.18;3.30;;;;;;;24.45;55.05;95185.91;1732032;83;21078;-71
2022/08/27 08:13:39;;;;;;;7.53;2.77;;;;;;;24.60;53.99;95189.59;1731913;83;21604;-71
2022/08/27 08:16:07;;;;;;;4.42;2.70;;;;;;;24.76;53.56;95187.86;1731729;83;21035;-71
2022/08/27 08:18:36;;;;;;;19.02;4.35;;;;;;;24.91;51.26;95185.75;1732161;83;21026;-71
2022/08/27 08:21:08;;;;;;;11.75;3.37;;;;;;;25.06;52.00;95187.69;1732348;82;21054;-71
2022/08/27 08:23:35;;;;;;;8.05;2.92;;;;;;;25.17;52.19;95189.52;1731931;83;21034;-71
2022/08/27 08:26:02;;;;;;;8.73;3.15;;;;;;;25.31;52.08;95188.39;1732252;83;21473;-71
2022/08/27 08:28:29;;;;;;;8.53;3.10;;;;;;;25.43;52.23;95188.21;1732221;83;21046;-71
2022/08/27 08:30:57;;;;;;;10.05;3.12;;;;;;;25.56;51.30;95183.98;1732183;83;21023;-71
2022/08/27 08:33:26;;;;;;;6.95;3.00;;;;;;;25.69;50.33;95184.64;1732086;83;21086;-71
2022/08/27 08:35:54;;;;;;;6.90;2.80;;;;;;;25.83;49.15;95185.30;1732134;83;21026;-70
2022/08/27 08:38:21;;;;;;;4.78;2.67;;;;;;;25.97;49.45;95178.76;1731666;83;21042;-70
2022/08/27 08:40:52;;;;;;;10.72;3.25;;;;;;;26.11;48.74;95187.39;1732014;83;21065;-70
2022/08/27 08:43:30;;;;;;;11.03;2.92;;;;;;;26.21;46.92;95183.39;1732181;82;20995;-71
2022/08/27 08:46:11;;;;;;;9.18;3.30;;;;;;;26.39;47.88;95181.42;1731748;83;21067;-70
2022/08/27 08:48:42;;;;;;;5.37;2.80;;;;;;;26.52;45.71;95177.98;1732049;83;21031;-71
2022/08/27 08:51:28;;;;;;;8.00;2.80;;;;;;;26.70;47.26;95183.14;1731866;82;21065;-70
2022/08/27 08:54:09;;;;;;;6.37;2.67;;;;;;;26.82;46.15;95179.84;1732157;82;21019;-71
2022/08/27 08:57:00;;;;;;;7.10;2.98;;;;;;;26.92;44.88;95182.08;1732127;82;21074;-71
2022/08/27 08:59:40;;;;;;;7.47;2.92;;;;;;;27.05;44.36;95179.61;1732266;83;21043;-70
2022/08/27 09:02:17;;;;;;;8.30;2.92;;;;;;;27.06;42.75;95178.61;1732112;82;21031;-70
2022/08/27 09:04:44;;;;;;;9.93;2.95;;;;;;;27.17;43.15;95175.29;1732260;82;21006;-71
2022/08/27 09:07:33;;;;;;;8.33;3.10;;;;;;;27.30;43.63;95178.27;1731695;83;21078;-70
2022/08/27 09:10:28;;;;;;;8.38;2.65;;;;;;;27.40;43.73;95178.63;1711795;83;21071;-70
2022/08/27 09:12:59;;;;;;;6.78;3.00;;;;;;;27.56;44.22;95176.70;1730197;83;21071;-70
2022/08/27 09:15:30;;;;;;;6.03;2.47;;;;;;;27.62;41.41;95172.08;1732162;82;21023;-71
2022/08/27 09:18:07;;;;;;;10.82;3.00;;;;;;;27.75;42.62;95177.20;1732203;83;21039;-70
2022/08/27 09:20:34;;;;;;;8.63;2.92;;;;;;;27.76;40.13;95173.48;1732025;83;21015;-70
2022/08/27 09:23:21;;;;;;;12.15;2.90;;;;;;;27.85;40.71;95179.95;1731861;83;20999;-70
2022/08/27 09:25:48;;;;;;;8.50;2.62;;;;;;;27.94;40.66;95175.50;1731745;83;21084;-70
2022/08/27 09:31:15;;;;;;;7.42;3.15;;;;;;;28.20;39.57;95171.69;1732239;82;21083;-70
2022/08/27 09:33:42;;;;;;;7.53;2.98;;;;;;;28.31;39.16;95167.94;1731961;83;21493;-70
2022/08/27 09:36:14;;;;;;;8.85;3.25;;;;;;;28.46;39.50;95173.27;1731827;83;21524;-70
2022/08/27 09:38:56;;;;;;;8.17;2.93;;;;;;;28.50;37.49;95169.27;1732335;82;21047;-70
2022/08/27 09:41:30;;;;;;;6.70;2.55;;;;;;;28.61;37.99;95176.36;1732021;82;21011;-70
2022/08/27 09:44:10;;;;;;;8.25;2.90;;;;;;;28.74;38.77;95163.80;1732230;82;21007;-71
2022/08/27 09:46:37;;;;;;;5.67;2.33;;;;;;;28.84;37.46;95165.96;1732108;83;21015;-71
2022/08/27 09:49:14;;;;;;;8.95;2.70;;;;;;;28.98;38.04;95168.19;1731911;83;21015;-70
2022/08/27 09:51:45;;;;;;;7.05;2.60;;;;;;;29.08;36.27;95169.01;1732087;83;21078;-70
2022/08/27 09:54:31;;;;;;;9.08;2.77;;;;;;;29.18;37.21;95160.80;1731943;83;20975;-70
2022/08/27 09:56:59;;;;;;;8.90;2.70;;;;;;;29.25;37.08;95165.95;1732294;82;21513;-70
2022/08/27 09:59:40;;;;;;;5.00;2.60;;;;;;;29.40;36.95;95164.92;1732187;83;21050;-70
2022/08/27 10:02:18;;;;;;;8.73;2.90;;;;;;;29.47;36.17;95161.94;1730007;83;21031;-71
2022/08/27 10:04:51;;;;;;;6.37;3.00;;;;;;;29.59;36.17;95157.13;1731962;83;21075;-70
2022/08/27 10:07:29;;;;;;;10.70;2.60;;;;;;;29.69;35.22;95157.94;1731917;83;21558;-70
2022/08/27 10:10:02;;;;;;;8.75;2.85;;;;;;;29.84;34.91;95159.59;1732085;83;21501;-70
2022/08/27 10:12:40;;;;;;;11.85;2.75;;;;;;;29.80;32.19;95158.19;1731323;83;21071;-70
2022/08/27 10:15:10;;;;;;;5.33;2.70;;;;;;;29.92;34.34;95158.81;1731522;83;21058;-70
2022/08/27 10:17:54;;;;;;;7.40;2.60;;;;;;;30.05;34.45;95155.67;1732240;82;21023;-70
2022/08/27 10:20:47;;;;;;;9.13;2.90;;;;;;;30.13;32.81;95155.21;1732161;83;21492;-70
2022/08/27 10:23:58;;;;;;;7.92;2.85;;;;;;;30.29;34.70;95158.61;1731758;82;21059;-70
2022/08/27 10:26:33;;;;;;;10.58;2.98;;;;;;;30.38;33.29;95154.90;1725786;83;21492;-70
2022/08/27 10:29:36;;;;;;;9.30;3.02;;;;;;;30.41;32.77;95149.12;1732164;83;20999;-70
2022/08/27 10:32:24;;;;;;;7.70;2.60;;;;;;;30.51;32.63;95153.62;1731947;83;21536;-71
2022/08/27 10:35:08;;;;;;;11.00;3.52;;;;;;;30.51;30.49;95150.38;1731912;83;20991;-70
2022/08/27 10:37:51;;;;;;;10.50;3.27;;;;;;;30.45;32.42;95153.77;1725645;83;21038;-70
2022/08/27 10:40:23;;;;;;;8.13;2.80;;;;;;;30.63;32.06;95157.77;1680615;83;21039;-71
2022/08/27 10:43:12;;;;;;;8.40;3.00;;;;;;;30.82;34.14;95158.92;1732693;83;21010;-69
2022/08/27 10:45:51;;;;;;;9.65;2.70;;;;;;;30.99;32.74;95159.83;1685197;83;21027;-70
2022/08/27 10:48:31;;;;;;;7.15;2.25;;;;;;;31.08;32.57;95167.53;1732281;83;21018;-70
2022/08/27 10:51:41;;;;;;;8.30;2.83;;;;;;;31.13;32.04;95167.05;1732043;83;21150;-70
2022/08/27 10:54:28;;;;;;;10.58;2.50;;;;;;;31.15;31.34;95165.86;1732045;83;21023;-70
2022/08/27 10:57:06;;;;;;;7.03;3.30;;;;;;;31.20;30.67;95164.86;1731979;83;21560;-70
2022/08/27 10:59:57;;;;;;;7.20;2.80;;;;;;;31.24;30.19;95160.76;1731778;83;21073;-70
2022/08/27 11:02:44;;;;;;;11.05;2.50;;;;;;;31.30;30.84;95158.39;1732384;82;21031;-70
2022/08/27 11:05:22;;;;;;;7.67;2.85;;;;;;;31.22;29.52;95154.64;1731163;83;21026;-70
2022/08/27 11:07:57;;;;;;;8.45;2.60;;;;;;;31.33;32.81;95158.08;1731544;83;21034;-70
2022/08/27 11:10:35;;;;;;;10.30;2.70;;;;;;;31.48;32.41;95155.07;1730421;83;21086;-70
2022/08/27 11:13:12;;;;;;;4.22;2.70;;;;;;;31.64;33.20;95152.87;1700661;84;21004;-70
2022/08/27 11:15:43;;;;;;;5.58;2.98;;;;;;;31.72;33.47;95155.59;1701177;84;21066;-70
2022/08/27 11:18:22;;;;;;;6.53;2.90;;;;;;;31.80;30.90;95151.53;1700952;84;21517;-69
2022/08/27 11:21:16;;;;;;;6.87;2.50;;;;;;;31.97;31.20;95151.03;1701243;84;21040;-70
2022/08/27 11:24:01;;;;;;;7.75;2.50;;;;;;;32.05;29.95;95153.75;1700876;84;21114;-71
2022/08/27 11:26:31;;;;;;;5.87;2.52;;;;;;;32.16;31.37;95151.73;1700429;84;21585;-70
2022/08/27 11:29:03;;;;;;;4.83;2.50;;;;;;;32.44;30.45;95154.92;1701057;84;21138;-70
2022/08/27 11:31:43;;;;;;;7.57;3.27;;;;;;;32.84;30.13;95157.23;1701704;84;21054;-71
2022/08/27 11:34:42;;;;;;;7.40;2.62;;;;;;;33.25;30.04;95155.19;1701167;84;21546;-70
2022/08/27 11:37:20;;;;;;;6.03;2.35;;;;;;;33.60;30.33;95162.02;1666233;86;21054;-70
2022/08/27 11:40:13;;;;;;;6.40;2.20;;;;;;;34.05;29.91;95146.64;1666361;86;20983;-70
2022/08/27 11:42:48;;;;;;;8.75;2.50;;;;;;;34.50;28.57;95147.27;1689003;84;21036;-70
2022/08/27 11:45:27;;;;;;;7.25;2.60;;;;;;;34.87;28.33;95149.95;1701280;84;21043;-71
2022/08/27 11:48:02;;;;;;;6.97;2.37;;;;;;;35.28;26.71;95139.90;1700879;84;21103;-71
2022/08/27 11:50:30;;;;;;;11.53;2.70;;;;;;;35.67;25.57;95148.27;1701052;84;21020;-71
2022/08/27 11:53:06;;;;;;;8.65;2.60;;;;;;;35.94;24.44;95147.19;1701214;84;21020;-71
2022/08/27 11:55:37;;;;;;;5.22;2.40;;;;;;;35.88;22.66;95143.31;1701086;84;20967;-71
2022/08/27 11:58:22;;;;;;;6.70;2.37;;;;;;;35.94;25.12;95147.19;1701255;84;21090;-71
2022/08/27 12:00:53;;;;;;;9.45;2.60;;;;;;;35.73;24.37;95147.52;1701043;84;21039;-71